Time;durP1;ratioP1;P1;durP2;ratioP2;P2;SDS_P1;SDS_P2;PMS_P1;PMS_P2;Temp;Humidity;BMP_temperature;BMP_pressure;BME280_temperature;BME280_humidity;BME280_pressure;Samples;Min_cycle;Max_cycle;Signal;HPM_P1;HPM_P2
2023/05/29 00:02:14;;;;;;;8.93;1.35;;;11.00;99.90;;;;;;5137499;27;20043;-82
2023/05/29 00:04:40;;;;;;;8.82;1.52;;;11.00;99.90;;;;;;5119845;27;20367;-86
2023/05/29 00:07:06;;;;;;;6.43;1.50;;;11.00;99.90;;;;;;5102314;27;20504;-85
2023/05/29 00:09:31;;;;;;;6.45;1.35;;;11.00;99.90;;;;;;5137378;27;20050;-85
2023/05/29 00:11:57;;;;;;;8.43;1.27;;;10.90;99.90;;;;;;5137288;27;20397;-85
2023/05/29 00:14:23;;;;;;;6.88;0.93;;;10.90;99.90;;;;;;5137228;27;20125;-85
2023/05/29 00:16:50;;;;;;;7.78;1.35;;;10.90;99.90;;;;;;5137157;27;20455;-85
2023/05/29 00:19:19;;;;;;;7.55;1.05;;;11.10;99.90;;;;;;5137947;27;20138;-86
2023/05/29 00:21:47;;;;;;;10.23;1.30;;;10.90;99.90;;;;;;5101677;27;20082;-85
2023/05/29 00:24:17;;;;;;;8.90;1.30;;;10.90;99.90;;;;;;5137582;27;20039;-86
2023/05/29 00:26:43;;;;;;;10.65;1.50;;;10.80;99.90;;;;;;5137146;27;20051;-85
2023/05/29 00:29:09;;;;;;;4.30;1.08;;;10.80;99.90;;;;;;5118786;27;20090;-85
2023/05/29 00:31:36;;;;;;;10.65;1.60;;;10.70;99.90;;;;;;5136001;27;20047;-85
2023/05/29 00:34:02;;;;;;;7.95;1.40;;;10.70;99.90;;;;;;5136887;27;20156;-85
2023/05/29 00:36:29;;;;;;;7.30;1.20;;;10.70;99.90;;;;;;5136838;27;20133;-88
2023/05/29 00:38:55;;;;;;;6.35;1.30;;;10.60;99.90;;;;;;5136826;27;20048;-87
2023/05/29 00:41:21;;;;;;;7.00;1.45;;;10.70;99.90;;;;;;5118362;27;20120;-86
2023/05/29 00:43:46;;;;;;;5.93;1.17;;;10.60;99.90;;;;;;5136975;27;20097;-86
2023/05/29 00:46:14;;;;;;;5.22;1.10;;;10.60;99.90;;;;;;5136577;27;20088;-86
2023/05/29 00:48:41;;;;;;;5.88;1.13;;;10.60;99.90;;;;;;5136806;27;20047;-86
2023/05/29 00:51:09;;;;;;;4.88;1.05;;;10.60;99.90;;;;;;5118447;27;20043;-86
2023/05/29 00:53:35;;;;;;;7.60;0.85;;;10.60;99.90;;;;;;5136557;27;20047;-85
2023/05/29 00:56:02;;;;;;;7.50;1.15;;;10.50;99.90;;;;;;5136450;27;20051;-85
2023/05/29 00:58:28;;;;;;;6.40;1.10;;;10.50;99.90;;;;;;5118357;27;20155;-86
2023/05/29 01:00:54;;;;;;;9.32;1.50;;;10.50;99.90;;;;;;5136889;27;20043;-85
2023/05/29 01:03:22;;;;;;;11.35;1.20;;;10.50;99.90;;;;;;5136250;27;20125;-85
2023/05/29 01:05:48;;;;;;;11.77;1.35;;;10.50;99.90;;;;;;5136251;27;20049;-85
2023/05/29 01:08:14;;;;;;;9.27;1.60;;;10.50;99.90;;;;;;5118101;27;20126;-87
2023/05/29 01:10:42;;;;;;;5.60;1.10;;;10.50;99.90;;;;;;5117954;27;20045;-85
2023/05/29 01:13:30;;;;;;;7.93;1.38;;;10.50;99.90;;;;;;5136101;27;20051;-85
2023/05/29 01:16:06;;;;;;;11.10;1.83;;;10.50;99.90;;;;;;5136882;27;20051;-85
2023/05/29 01:19:00;;;;;;;8.20;1.33;;;10.50;99.90;;;;;;5136059;27;20047;-86
2023/05/29 01:21:56;;;;;;;8.93;1.30;;;10.50;99.90;;;;;;5135935;27;20086;-85
2023/05/29 01:24:40;;;;;;;10.82;1.27;;;10.50;99.90;;;;;;5127030;27;20051;-85
2023/05/29 01:27:10;;;;;;;11.23;1.50;;;10.40;99.90;;;;;;5136049;27;20051;-84
2023/05/29 01:29:39;;;;;;;7.00;1.58;;;10.40;99.90;;;;;;5117672;27;20054;-84
2023/05/29 01:32:06;;;;;;;9.38;1.30;;;10.40;99.90;;;;;;5117418;27;20050;-84
2023/05/29 01:34:32;;;;;;;7.15;1.20;;;10.40;99.90;;;;;;5100746;27;20421;-85
2023/05/29 01:36:58;;;;;;;3.80;1.10;;;10.40;99.90;;;;;;5117343;27;20043;-85
2023/05/29 01:39:25;;;;;;;7.55;1.38;;;10.40;99.90;;;;;;5117174;27;20437;-85
2023/05/29 01:41:52;;;;;;;9.30;1.70;;;10.40;99.90;;;;;;5135408;27;20100;-85
2023/05/29 01:44:18;;;;;;;7.95;1.58;;;10.40;99.90;;;;;;5117182;27;20051;-85
2023/05/29 01:46:45;;;;;;;5.28;1.20;;;10.40;99.90;;;;;;5100268;27;20118;-84
2023/05/29 01:49:12;;;;;;;11.90;2.00;;;10.40;99.90;;;;;;5116933;27;20513;-85
2023/05/29 01:51:41;;;;;;;6.25;1.10;;;10.40;99.90;;;;;;5135303;27;20058;-85
2023/05/29 01:54:07;;;;;;;6.78;1.23;;;10.40;99.90;;;;;;5135295;27;20475;-84
2023/05/29 01:56:33;;;;;;;6.93;1.35;;;10.40;99.90;;;;;;5117938;27;20367;-84
2023/05/29 01:59:02;;;;;;;13.07;2.17;;;10.40;99.90;;;;;;5135222;27;20078;-84
2023/05/29 02:01:27;;;;;;;6.45;1.00;;;10.40;99.90;;;;;;5116868;27;20126;-82
2023/05/29 02:03:53;;;;;;;6.40;1.60;;;10.40;99.90;;;;;;5135623;27;20177;-84
2023/05/29 02:06:19;;;;;;;6.93;1.17;;;10.40;99.90;;;;;;5135119;27;20431;-84
2023/05/29 02:08:45;;;;;;;6.35;1.65;;;10.40;99.90;;;;;;5116855;27;20043;-85
2023/05/29 02:11:11;;;;;;;6.60;1.10;;;10.40;99.90;;;;;;5116949;27;20184;-85
2023/05/29 02:13:37;;;;;;;7.95;1.25;;;10.30;99.90;;;;;;5116777;27;20096;-84
2023/05/29 02:16:03;;;;;;;8.23;1.00;;;10.40;99.90;;;;;;5134979;27;20086;-84
2023/05/29 02:18:29;;;;;;;5.30;1.23;;;10.30;99.90;;;;;;5117544;27;20035;-84
2023/05/29 02:20:54;;;;;;;6.10;1.08;;;10.30;99.90;;;;;;5116776;27;20055;-84
2023/05/29 02:23:20;;;;;;;4.80;1.00;;;10.30;99.90;;;;;;5134418;27;20519;-84
2023/05/29 02:25:46;;;;;;;6.72;1.08;;;10.30;99.90;;;;;;5134600;27;20127;-84
2023/05/29 02:28:12;;;;;;;7.55;1.40;;;10.30;99.90;;;;;;5134821;27;20126;-85
2023/05/29 02:30:38;;;;;;;8.10;1.40;;;10.20;99.90;;;;;;5116523;27;20073;-84
2023/05/29 02:33:04;;;;;;;6.32;0.90;;;10.20;99.90;;;;;;5135000;27;20047;-85
2023/05/29 02:35:30;;;;;;;7.90;1.60;;;10.20;99.90;;;;;;5134694;27;20530;-84
2023/05/29 02:37:55;;;;;;;9.32;1.25;;;10.20;99.90;;;;;;5134675;27;20131;-85
2023/05/29 02:40:21;;;;;;;6.35;1.23;;;10.20;99.90;;;;;;5134700;27;20066;-85
2023/05/29 02:42:47;;;;;;;7.68;1.30;;;10.20;99.90;;;;;;5116472;28;20050;-85
2023/05/29 02:45:13;;;;;;;8.52;1.27;;;10.10;99.90;;;;;;5116221;28;20079;-85
2023/05/29 02:47:39;;;;;;;8.32;1.20;;;10.10;99.90;;;;;;5134544;28;20089;-85
2023/05/29 02:50:05;;;;;;;9.13;1.00;;;10.10;99.90;;;;;;5134465;28;20047;-85
2023/05/29 02:52:36;;;;;;;7.88;1.65;;;10.10;99.90;;;;;;5116179;27;20103;-84
2023/05/29 02:55:03;;;;;;;9.32;1.02;;;10.10;99.90;;;;;;5138558;27;20096;-85
2023/05/29 02:57:29;;;;;;;10.38;1.15;;;10.10;99.90;;;;;;5138427;27;20506;-85
2023/05/29 02:59:55;;;;;;;6.80;1.00;;;10.10;99.90;;;;;;5138702;27;20093;-86
2023/05/29 03:02:21;;;;;;;9.20;1.30;;;10.10;99.90;;;;;;5138435;27;20039;-85
2023/05/29 03:04:49;;;;;;;11.07;1.10;;;10.10;99.90;;;;;;5120510;27;20050;-85
2023/05/29 03:07:15;;;;;;;7.07;1.63;;;10.00;99.90;;;;;;5138549;27;20043;-85
2023/05/29 03:09:41;;;;;;;6.53;1.00;;;10.00;99.90;;;;;;5138515;27;20054;-85
2023/05/29 03:12:07;;;;;;;5.93;1.20;;;10.00;99.90;;;;;;5119905;27;20047;-85
2023/05/29 03:14:35;;;;;;;7.95;1.52;;;10.00;99.90;;;;;;5138510;27;20046;-85
2023/05/29 03:17:07;;;;;;;7.78;1.00;;;10.00;99.90;;;;;;5138384;27;20368;-85
2023/05/29 03:19:33;;;;;;;9.75;1.10;;;10.00;99.90;;;;;;5138305;27;20403;-85
2023/05/29 03:21:59;;;;;;;4.40;1.05;;;10.00;99.90;;;;;;5120749;27;20050;-85
2023/05/29 03:24:25;;;;;;;4.55;1.05;;;9.90;99.90;;;;;;5138483;27;20035;-85
2023/05/29 03:26:50;;;;;;;8.32;1.55;;;9.90;99.90;;;;;;5120014;27;20043;-84
2023/05/29 03:29:17;;;;;;;6.45;0.90;;;9.90;99.90;;;;;;5138107;27;20386;-83
2023/05/29 03:31:43;;;;;;;8.75;1.10;;;9.90;99.90;;;;;;5138122;27;20047;-84
2023/05/29 03:34:08;;;;;;;7.45;1.25;;;10.00;99.90;;;;;;5138024;27;20035;-85
2023/05/29 03:36:36;;;;;;;9.25;1.30;;;10.00;99.90;;;;;;5138572;27;20069;-85
2023/05/29 03:39:03;;;;;;;5.75;1.42;;;10.00;99.90;;;;;;5120154;27;20124;-85
2023/05/29 03:41:28;;;;;;;6.88;1.00;;;10.00;99.90;;;;;;5137553;27;20490;-85
2023/05/29 03:43:54;;;;;;;5.70;0.90;;;10.00;99.90;;;;;;5138331;27;20042;-84
2023/05/29 03:46:20;;;;;;;6.35;1.25;;;10.00;99.90;;;;;;5137956;27;20058;-84
2023/05/29 03:48:45;;;;;;;4.93;1.45;;;10.00;99.90;;;;;;5137737;27;20035;-84
2023/05/29 03:51:11;;;;;;;5.45;0.90;;;10.00;99.90;;;;;;5137770;27;20394;-82
2023/05/29 03:53:37;;;;;;;8.07;1.20;;;10.10;99.90;;;;;;5120108;27;20139;-86
2023/05/29 03:56:02;;;;;;;6.68;1.35;;;10.10;99.90;;;;;;5137682;27;20122;-85
2023/05/29 03:58:28;;;;;;;6.90;1.30;;;10.10;99.90;;;;;;5138450;27;20442;-86
2023/05/29 04:00:54;;;;;;;6.97;0.95;;;10.10;99.90;;;;;;5119290;27;20043;-85
2023/05/29 04:03:20;;;;;;;10.23;1.40;;;10.10;99.90;;;;;;5119926;27;20071;-86
2023/05/29 04:05:46;;;;;;;7.82;1.17;;;10.10;99.90;;;;;;5135765;27;20043;-86
2023/05/29 04:08:13;;;;;;;9.75;1.70;;;10.10;99.90;;;;;;5119249;27;20047;-84
2023/05/29 04:10:39;;;;;;;7.13;1.00;;;10.10;99.90;;;;;;5137938;27;20141;-84
2023/05/29 04:13:06;;;;;;;5.85;0.75;;;10.10;99.90;;;;;;5119521;27;20092;-85
2023/05/29 04:15:33;;;;;;;5.15;1.65;;;10.10;99.90;;;;;;5137124;27;20060;-86
2023/05/29 04:17:59;;;;;;;5.30;1.08;;;10.10;99.90;;;;;;5119019;27;20475;-85
2023/05/29 04:20:25;;;;;;;5.80;1.10;;;10.20;99.90;;;;;;5119342;27;20091;-84
2023/05/29 04:22:51;;;;;;;4.68;1.05;;;10.20;99.90;;;;;;5119798;27;20047;-84
2023/05/29 04:25:17;;;;;;;9.50;1.33;;;10.20;99.90;;;;;;5136960;27;20603;-84
2023/05/29 04:27:48;;;;;;;4.22;1.02;;;10.20;99.90;;;;;;5136823;27;20055;-84
2023/05/29 04:30:14;;;;;;;8.40;1.20;;;10.20;99.90;;;;;;5101917;27;20051;-85
2023/05/29 04:32:40;;;;;;;4.00;1.00;;;10.30;99.90;;;;;;5137008;27;20082;-85
2023/05/29 04:35:06;;;;;;;6.95;1.05;;;10.30;99.90;;;;;;5137446;27;20091;-84
2023/05/29 04:37:37;;;;;;;5.40;1.38;;;10.30;99.90;;;;;;5137324;27;20126;-84
2023/05/29 04:40:10;;;;;;;5.88;1.02;;;10.30;99.90;;;;;;5136871;27;20051;-84
2023/05/29 04:42:37;;;;;;;3.60;1.00;;;10.40;99.90;;;;;;5137053;27;20100;-83
2023/05/29 04:45:06;;;;;;;6.10;1.65;;;10.40;99.90;;;;;;5117878;27;20039;-83
2023/05/29 04:47:36;;;;;;;7.43;1.65;;;10.40;99.90;;;;;;5136614;27;20043;-85
2023/05/29 04:50:02;;;;;;;9.15;1.05;;;10.50;99.90;;;;;;5136558;27;20047;-85
2023/05/29 04:52:28;;;;;;;5.55;1.15;;;10.50;99.90;;;;;;5118449;27;20138;-83
2023/05/29 04:54:57;;;;;;;6.53;0.93;;;10.60;99.90;;;;;;5137280;27;20039;-82
2023/05/29 04:57:22;;;;;;;6.78;1.10;;;11.70;99.90;;;;;;5136395;27;20510;-83
2023/05/29 04:59:48;;;;;;;5.25;0.93;;;10.70;99.90;;;;;;5136443;27;20047;-83
2023/05/29 05:02:14;;;;;;;6.78;1.27;;;10.70;99.90;;;;;;5118275;27;20139;-84
2023/05/29 05:04:40;;;;;;;10.52;1.75;;;10.70;99.90;;;;;;5136627;27;20538;-84
2023/05/29 05:07:06;;;;;;;6.20;1.08;;;10.70;99.90;;;;;;5136227;27;20420;-84
2023/05/29 05:09:31;;;;;;;6.85;1.52;;;10.80;99.90;;;;;;5118462;27;20138;-84
2023/05/29 05:11:57;;;;;;;6.95;1.00;;;10.80;99.90;;;;;;5118653;27;20078;-84
2023/05/29 05:14:23;;;;;;;6.63;1.45;;;10.80;99.90;;;;;;5136143;27;20039;-84
2023/05/29 05:16:49;;;;;;;5.65;1.00;;;10.80;99.90;;;;;;5117362;27;20043;-83
2023/05/29 05:19:14;;;;;;;9.52;1.67;;;10.90;99.90;;;;;;5136556;27;20047;-83
2023/05/29 05:21:40;;;;;;;6.57;1.33;;;10.90;99.90;;;;;;5118146;27;20374;-85
2023/05/29 05:24:06;;;;;;;7.68;1.35;;;10.90;99.90;;;;;;5117916;27;20046;-85
2023/05/29 05:26:31;;;;;;;7.25;1.20;;;10.90;99.90;;;;;;5136553;27;20058;-83
2023/05/29 05:28:57;;;;;;;5.00;1.27;;;10.90;99.90;;;;;;5135539;27;20062;-84
2023/05/29 05:31:24;;;;;;;6.72;1.70;;;11.00;99.90;;;;;;5135693;27;20051;-84
2023/05/29 05:33:49;;;;;;;4.45;1.58;;;11.00;99.90;;;;;;5135686;27;20079;-82
2023/05/29 05:36:15;;;;;;;6.40;1.20;;;11.00;99.90;;;;;;5117887;27;20082;-84
2023/05/29 05:38:41;;;;;;;4.72;1.30;;;11.00;99.90;;;;;;5117613;27;20475;-83
2023/05/29 05:41:06;;;;;;;5.82;1.60;;;11.10;99.90;;;;;;5135893;27;20390;-83
2023/05/29 05:43:32;;;;;;;6.90;1.30;;;11.10;99.90;;;;;;5135092;27;20043;-83
2023/05/29 05:45:58;;;;;;;7.68;1.48;;;11.10;99.90;;;;;;5135049;27;20049;-83
2023/05/29 05:48:23;;;;;;;6.60;1.20;;;11.10;99.90;;;;;;5135816;27;20047;-84
2023/05/29 05:50:50;;;;;;;10.60;1.73;;;11.20;99.90;;;;;;5135375;27;20521;-83
2023/05/29 05:53:16;;;;;;;4.60;1.20;;;11.20;99.90;;;;;;5117015;27;20134;-83
2023/05/29 05:55:42;;;;;;;7.90;1.55;;;11.30;99.90;;;;;;5135279;27;20043;-83
2023/05/29 05:58:08;;;;;;;8.77;1.90;;;11.30;99.90;;;;;;5117746;27;20107;-82
2023/05/29 06:00:34;;;;;;;4.85;1.33;;;11.30;99.90;;;;;;5117204;27;20043;-83
2023/05/29 06:03:02;;;;;;;9.27;2.00;;;11.40;99.90;;;;;;5135114;27;20043;-84
2023/05/29 06:05:28;;;;;;;5.82;1.83;;;11.40;99.90;;;;;;5100685;27;20130;-85
2023/05/29 06:07:54;;;;;;;7.47;1.45;;;11.40;99.90;;;;;;5100313;27;20051;-84
2023/05/29 06:10:20;;;;;;;10.23;1.83;;;11.50;99.90;;;;;;5135579;27;20477;-85
2023/05/29 06:12:45;;;;;;;11.07;1.92;;;11.50;99.90;;;;;;5116867;27;20130;-80
2023/05/29 06:15:12;;;;;;;7.55;1.65;;;11.50;99.90;;;;;;5135153;27;20035;-81
2023/05/29 06:17:38;;;;;;;9.18;1.75;;;11.50;99.90;;;;;;5135780;27;20082;-82
2023/05/29 06:20:10;;;;;;;10.40;1.95;;;11.60;99.90;;;;;;5116733;27;20451;-80
2023/05/29 06:22:39;;;;;;;11.40;2.17;;;11.60;99.90;;;;;;5135205;27;20067;-81
2023/05/29 06:25:06;;;;;;;10.63;1.60;;;11.60;99.90;;;;;;5134746;27;20039;-82
2023/05/29 06:27:31;;;;;;;7.85;1.67;;;11.70;99.90;;;;;;5135169;27;20523;-79
2023/05/29 06:29:57;;;;;;;9.07;1.50;;;11.80;99.90;;;;;;5134651;27;20093;-82
2023/05/29 06:32:23;;;;;;;10.25;1.45;;;11.80;99.90;;;;;;5116352;27;20039;-81
2023/05/29 06:34:48;;;;;;;8.07;1.70;;;11.90;99.90;;;;;;5134913;27;20047;-83
2023/05/29 06:37:14;;;;;;;10.00;1.77;;;11.90;99.90;;;;;;5135355;27;20110;-85
2023/05/29 06:39:41;;;;;;;7.50;1.88;;;11.90;99.90;;;;;;5134653;27;20372;-87
2023/05/29 06:42:08;;;;;;;8.48;1.90;;;12.00;99.90;;;;;;5099678;28;20425;-87
2023/05/29 06:44:34;;;;;;;5.53;1.48;;;12.00;99.90;;;;;;5116997;28;20043;-84
2023/05/29 06:46:59;;;;;;;6.53;1.17;;;12.00;99.90;;;;;;5116362;28;20406;-81
2023/05/29 06:49:25;;;;;;;7.13;1.60;;;12.00;99.90;;;;;;5116336;28;20054;-86
2023/05/29 06:51:51;;;;;;;9.07;1.77;;;12.10;99.90;;;;;;5134780;28;20043;-83
2023/05/29 06:54:17;;;;;;;9.70;2.67;;;12.10;99.90;;;;;;5134530;28;20039;-87
2023/05/29 06:56:42;;;;;;;5.22;1.30;;;12.10;99.90;;;;;;5134517;28;20039;-83
2023/05/29 06:59:08;;;;;;;7.65;1.55;;;12.10;99.90;;;;;;5116269;28;20459;-86
2023/05/29 07:01:34;;;;;;;8.27;1.90;;;12.10;99.90;;;;;;5099271;28;20059;-91
2023/05/29 07:03:59;;;;;;;5.13;1.27;;;12.10;99.90;;;;;;5134890;28;20039;-83
2023/05/29 07:06:25;;;;;;;8.18;1.70;;;12.10;99.90;;;;;;5116244;28;20043;-84
2023/05/29 07:08:51;;;;;;;10.75;1.35;;;12.10;99.90;;;;;;5134122;28;20043;-82
2023/05/29 07:11:17;;;;;;;7.45;1.90;;;12.10;99.90;;;;;;5135231;28;20046;-85
2023/05/29 07:13:42;;;;;;;8.55;1.45;;;12.20;99.90;;;;;;5134067;28;20125;-84
2023/05/29 07:16:08;;;;;;;7.32;2.05;;;12.20;99.90;;;;;;5115943;28;20043;-83
2023/05/29 07:18:34;;;;;;;5.47;1.58;;;12.20;99.90;;;;;;5099334;28;20495;-82
2023/05/29 07:21:00;;;;;;;8.50;1.63;;;12.20;99.90;;;;;;5135439;28;20042;-90
2023/05/29 07:23:26;;;;;;;13.05;1.83;;;12.20;99.90;;;;;;5116485;28;20071;-87
2023/05/29 07:25:51;;;;;;;9.23;1.65;;;12.30;99.90;;;;;;5082997;28;20054;-86
2023/05/29 07:28:17;;;;;;;7.40;1.83;;;12.30;99.90;;;;;;5135115;28;20065;-86
2023/05/29 07:30:43;;;;;;;5.47;1.55;;;12.30;99.90;;;;;;5116802;28;20076;-86
2023/05/29 07:33:09;;;;;;;10.00;1.80;;;12.30;99.90;;;;;;5116273;28;20050;-85
2023/05/29 07:35:35;;;;;;;13.48;2.15;;;12.30;99.90;;;;;;5115755;28;20501;-86
2023/05/29 07:38:01;;;;;;;7.95;1.55;;;12.40;99.90;;;;;;5134847;28;20043;-90
2023/05/29 07:40:27;;;;;;;8.27;1.88;;;12.40;99.90;;;;;;5136510;27;20039;-85
2023/05/29 07:42:52;;;;;;;11.32;1.95;;;12.40;99.90;;;;;;5119563;27;20096;-85
2023/05/29 07:45:18;;;;;;;8.05;2.10;;;12.50;99.90;;;;;;5137725;27;20039;-85
2023/05/29 07:47:44;;;;;;;11.95;2.45;;;12.50;99.90;;;;;;5120513;27;20051;-86
2023/05/29 07:50:11;;;;;;;8.48;1.67;;;12.60;99.90;;;;;;5137530;27;20043;-85
2023/05/29 07:52:36;;;;;;;9.50;1.58;;;12.60;99.90;;;;;;5120425;27;20100;-82
2023/05/29 07:55:02;;;;;;;6.95;1.40;;;12.70;99.90;;;;;;5102502;27;20047;-82
2023/05/29 07:57:28;;;;;;;10.98;1.75;;;12.70;99.90;;;;;;5137475;27;20137;-84
2023/05/29 07:59:54;;;;;;;8.13;2.13;;;12.80;99.90;;;;;;5103203;27;20062;-86
2023/05/29 08:02:20;;;;;;;9.65;2.08;;;12.80;99.90;;;;;;5137836;27;20539;-88
2023/05/29 08:04:46;;;;;;;8.40;1.65;;;12.90;99.90;;;;;;5119946;27;20039;-87
2023/05/29 08:07:12;;;;;;;11.02;2.58;;;12.90;99.90;;;;;;5119273;27;20043;-82
2023/05/29 08:09:38;;;;;;;11.38;1.77;;;13.00;99.90;;;;;;5137863;27;20058;-92
2023/05/29 08:12:05;;;;;;;9.63;1.80;;;13.00;99.90;;;;;;5119049;27;20180;-86
2023/05/29 08:14:31;;;;;;;10.35;2.10;;;13.00;99.90;;;;;;5137361;27;20092;-86
2023/05/29 08:16:57;;;;;;;10.68;2.20;;;13.10;99.90;;;;;;5119376;27;20054;-86
2023/05/29 08:19:23;;;;;;;11.75;1.98;;;13.10;99.90;;;;;;5137230;27;20043;-89
2023/05/29 08:21:49;;;;;;;9.90;1.95;;;13.20;99.90;;;;;;5138364;27;20043;-90
2023/05/29 08:24:15;;;;;;;11.52;1.92;;;13.10;99.90;;;;;;5137363;27;20053;-88
2023/05/29 08:26:41;;;;;;;8.05;2.22;;;13.20;99.90;;;;;;5137551;27;20127;-85
2023/05/29 08:29:06;;;;;;;9.88;2.53;;;13.20;99.90;;;;;;5137183;27;20059;-83
2023/05/29 08:31:32;;;;;;;13.43;1.98;;;13.30;99.90;;;;;;5137581;27;20043;-89
2023/05/29 08:33:58;;;;;;;7.40;1.70;;;13.30;99.90;;;;;;5137752;27;20043;-90
2023/05/29 08:36:25;;;;;;;11.57;2.00;;;13.40;99.90;;;;;;5118958;27;20043;-87
2023/05/29 08:38:50;;;;;;;11.18;1.73;;;13.40;99.90;;;;;;5138484;27;20047;-90
2023/05/29 08:41:53;;;;;;;16.67;2.55;;;13.40;99.90;;;;;;5102735;27;20047;-92
2023/05/29 08:44:22;;;;;;;11.68;1.88;;;13.50;99.90;;;;;;5136948;27;20531;-83
2023/05/29 08:46:54;;;;;;;10.38;1.98;;;13.50;99.90;;;;;;5101790;27;20054;-91
2023/05/29 08:49:22;;;;;;;11.35;2.28;;;13.50;99.90;;;;;;5137650;27;20478;-94
2023/05/29 08:51:52;;;;;;;7.75;1.50;;;13.50;99.90;;;;;;5136614;27;20058;-90
2023/05/29 08:54:18;;;;;;;7.13;2.00;;;13.60;99.90;;;;;;5119871;27;20054;-91
2023/05/29 08:56:44;;;;;;;13.25;2.20;;;13.60;99.90;;;;;;5137701;27;20043;-90
2023/05/29 08:59:12;;;;;;;9.43;1.27;;;13.60;99.90;;;;;;5139049;27;20464;-92
2023/05/29 09:01:38;;;;;;;10.18;1.90;;;13.70;99.90;;;;;;5122274;27;20039;-89
2023/05/29 09:04:04;;;;;;;9.93;1.63;;;13.70;99.90;;;;;;5145670;27;20126;-87
2023/05/29 09:06:30;;;;;;;6.55;1.55;;;13.70;99.90;;;;;;5121376;27;20096;-92
2023/05/29 09:08:57;;;;;;;10.75;1.98;;;13.70;99.90;;;;;;5138202;27;20050;-84
2023/05/29 09:11:23;;;;;;;9.30;1.58;;;13.70;99.90;;;;;;5136219;27;20054;-82
2023/05/29 09:13:49;;;;;;;9.50;2.05;;;13.70;99.90;;;;;;5136331;27;20363;-80
2023/05/29 09:16:17;;;;;;;9.60;1.92;;;13.70;99.90;;;;;;5136302;27;20051;-81
2023/05/29 09:18:45;;;;;;;8.63;1.83;;;13.70;99.90;;;;;;5135870;27;20130;-81
2023/05/29 09:21:26;;;;;;;11.05;1.60;;;13.70;99.90;;;;;;5117867;27;20124;-81
2023/05/29 09:24:02;;;;;;;6.60;1.55;;;13.70;99.90;;;;;;5135754;27;20042;-85
2023/05/29 09:26:28;;;;;;;11.70;1.73;;;13.80;99.90;;;;;;5135819;27;20147;-83
2023/05/29 09:28:55;;;;;;;10.18;1.92;;;13.80;99.90;;;;;;5136089;27;20455;-83
2023/05/29 09:31:21;;;;;;;9.27;2.10;;;13.90;99.90;;;;;;5135507;27;20046;-85
2023/05/29 09:33:48;;;;;;;11.43;1.85;;;14.00;99.90;;;;;;5135409;27;20043;-84
2023/05/29 09:36:22;;;;;;;5.53;1.52;;;14.10;99.90;;;;;;5135468;27;20089;-85
2023/05/29 09:38:48;;;;;;;7.75;2.20;;;14.10;99.90;;;;;;5117577;27;20050;-90
2023/05/29 09:41:20;;;;;;;14.02;1.90;;;14.20;99.90;;;;;;5135501;27;20128;-82
2023/05/29 09:43:46;;;;;;;9.82;1.67;;;14.20;99.90;;;;;;5135523;27;20039;-80
2023/05/29 09:46:17;;;;;;;7.80;1.75;;;14.20;99.90;;;;;;5135247;27;20121;-83
2023/05/29 09:48:43;;;;;;;8.40;1.70;;;14.20;99.90;;;;;;5135864;27;20042;-83
2023/05/29 09:51:22;;;;;;;11.68;1.60;;;14.20;99.90;;;;;;5135294;27;20043;-87
2023/05/29 09:53:50;;;;;;;11.00;1.70;;;14.20;99.90;;;;;;5135652;27;20088;-86
2023/05/29 09:56:17;;;;;;;12.20;2.15;;;14.30;99.90;;;;;;5135689;27;20467;-83
2023/05/29 09:58:47;;;;;;;8.70;1.48;;;14.30;99.90;;;;;;5136856;27;20070;-84
2023/05/29 10:01:15;;;;;;;9.20;1.88;;;14.30;99.90;;;;;;5137027;27;20051;-82
2023/05/29 10:03:42;;;;;;;13.60;1.80;;;14.30;99.90;;;;;;5134974;27;20180;-88
2023/05/29 10:06:11;;;;;;;8.48;1.48;;;14.30;99.90;;;;;;5116804;27;20055;-82
2023/05/29 10:08:48;;;;;;;10.95;2.65;;;14.30;99.90;;;;;;5135444;27;20112;-83
2023/05/29 10:11:17;;;;;;;8.43;1.48;;;14.30;99.90;;;;;;5117988;27;20115;-92
2023/05/29 10:13:49;;;;;;;11.90;1.63;;;14.40;99.90;;;;;;5135848;27;20074;-81
2023/05/29 10:16:16;;;;;;;8.70;1.40;;;14.40;99.90;;;;;;5135436;27;20138;-92
2023/05/29 10:18:50;;;;;;;6.57;1.30;;;14.40;99.90;;;;;;5136295;27;20376;-87
2023/05/29 10:21:17;;;;;;;10.13;1.75;;;14.40;99.90;;;;;;5117605;27;20047;-82
2023/05/29 10:23:47;;;;;;;9.20;1.70;;;14.50;99.90;;;;;;5136175;27;20347;-83
2023/05/29 10:26:23;;;;;;;12.23;1.98;;;14.50;99.90;;;;;;5117157;27;20486;-83
2023/05/29 10:29:12;;;;;;;7.38;1.67;;;14.50;99.90;;;;;;5135456;27;20053;-85
2023/05/29 10:31:49;;;;;;;12.68;1.75;;;14.40;99.90;;;;;;5096234;27;20058;-84
2023/05/29 10:34:34;;;;;;;11.10;2.38;;;14.40;99.90;;;;;;5134922;27;20047;-84
2023/05/29 10:37:18;;;;;;;6.85;1.70;;;14.30;99.90;;;;;;5135345;27;20039;-86
2023/05/29 10:39:43;;;;;;;8.27;1.50;;;14.30;99.90;;;;;;5134856;27;20236;-84
2023/05/29 10:42:47;;;;;;;6.72;1.83;;;14.30;99.90;;;;;;5116985;28;20554;-82
2023/05/29 10:45:31;;;;;;;7.75;1.73;;;14.30;99.90;;;;;;5134608;28;20079;-83
2023/05/29 10:48:12;;;;;;;8.27;1.50;;;14.30;99.90;;;;;;5116640;28;20387;-80
2023/05/29 10:50:42;;;;;;;12.80;2.17;;;14.30;99.90;;;;;;5134639;28;20547;-84
2023/05/29 10:53:12;;;;;;;6.03;1.38;;;14.40;99.90;;;;;;5135236;28;20046;-86
2023/05/29 10:55:39;;;;;;;6.43;1.80;;;14.40;99.90;;;;;;5135278;28;20051;-83
2023/05/29 10:58:11;;;;;;;4.82;1.30;;;14.40;99.90;;;;;;5116339;28;20054;-78
2023/05/29 11:00:45;;;;;;;7.22;1.73;;;14.40;99.90;;;;;;5134593;28;20047;-80
2023/05/29 11:03:15;;;;;;;6.13;1.70;;;14.40;99.90;;;;;;5134645;28;20079;-88
2023/05/29 11:06:27;;;;;;;7.32;1.40;;;14.30;99.90;;;;;;5134571;28;20043;-85
2023/05/29 11:08:54;;;;;;;8.10;1.40;;;14.30;99.90;;;;;;5134229;28;20097;-89
2023/05/29 11:11:36;;;;;;;6.97;1.33;;;14.40;99.90;;;;;;5134506;28;20047;-88
2023/05/29 11:14:04;;;;;;;6.90;1.27;;;14.40;99.90;;;;;;5134726;27;20542;-86
2023/05/29 11:16:30;;;;;;;6.43;1.50;;;14.50;99.90;;;;;;5138570;27;20051;-85
2023/05/29 11:18:57;;;;;;;8.73;1.60;;;14.50;99.90;;;;;;5138513;27;20057;-85
2023/05/29 11:21:30;;;;;;;7.10;1.38;;;14.60;99.90;;;;;;5138428;27;20050;-84
2023/05/29 11:23:58;;;;;;;10.00;1.60;;;14.60;99.90;;;;;;5121103;27;20051;-83
2023/05/29 11:26:27;;;;;;;6.72;1.92;;;14.60;99.90;;;;;;5120031;27;20061;-83
2023/05/29 11:28:53;;;;;;;7.85;1.83;;;14.70;99.90;;;;;;5120376;27;20387;-85
2023/05/29 11:31:22;;;;;;;10.07;1.40;;;14.70;99.90;;;;;;5104033;27;20042;-86
2023/05/29 11:33:50;;;;;;;11.20;1.42;;;14.60;99.90;;;;;;5120350;27;20118;-87
2023/05/29 11:36:19;;;;;;;5.38;1.10;;;14.70;99.90;;;;;;5138339;27;20054;-89
2023/05/29 11:38:46;;;;;;;9.55;1.60;;;14.70;99.90;;;;;;5139022;27;20043;-84
2023/05/29 11:41:11;;;;;;;10.63;1.98;;;14.70;99.90;;;;;;5138631;27;20043;-82
2023/05/29 11:43:37;;;;;;;8.23;1.88;;;14.70;99.90;;;;;;5103142;27;20383;-82
2023/05/29 11:46:18;;;;;;;9.48;1.55;;;14.70;99.90;;;;;;5120719;27;20039;-86
2023/05/29 11:48:47;;;;;;;7.40;1.70;;;14.80;99.90;;;;;;5138845;27;20089;-90
2023/05/29 11:51:14;;;;;;;6.18;1.38;;;14.80;99.90;;;;;;5138716;27;20070;-86
2023/05/29 11:53:43;;;;;;;8.98;1.50;;;14.80;99.90;;;;;;5139094;27;20067;-84
2023/05/29 11:56:12;;;;;;;9.48;1.45;;;14.80;99.90;;;;;;5120116;27;20077;-88
2023/05/29 11:58:39;;;;;;;9.65;1.70;;;14.90;99.90;;;;;;5137634;27;20499;-85
2023/05/29 12:01:05;;;;;;;10.50;1.95;;;15.00;99.90;;;;;;5138806;27;20074;-80
2023/05/29 12:03:41;;;;;;;10.23;1.80;;;15.10;99.90;;;;;;5137932;27;20043;-83
2023/05/29 12:06:10;;;;;;;6.82;1.27;;;15.10;99.90;;;;;;5139068;27;20085;-85
2023/05/29 12:08:37;;;;;;;4.80;1.35;;;15.10;99.90;;;;;;5119429;27;20046;-77
2023/05/29 12:11:03;;;;;;;7.07;1.65;;;15.10;99.90;;;;;;5119857;27;20039;-85
2023/05/29 12:13:29;;;;;;;8.75;1.60;;;15.10;99.90;;;;;;5137838;27;20050;-83
2023/05/29 12:15:58;;;;;;;8.90;1.50;;;15.10;99.90;;;;;;5137425;27;20043;-86
2023/05/29 12:18:25;;;;;;;7.78;1.83;;;15.00;99.90;;;;;;5119553;27;20039;-84
2023/05/29 12:20:56;;;;;;;7.55;1.63;;;15.00;99.90;;;;;;5119252;27;20043;-83
2023/05/29 12:23:22;;;;;;;5.80;1.15;;;15.00;99.90;;;;;;5118934;27;20060;-83
2023/05/29 12:25:48;;;;;;;14.25;1.65;;;15.00;99.90;;;;;;5136543;27;20051;-86
2023/05/29 12:28:20;;;;;;;4.57;1.20;;;15.00;99.90;;;;;;5119331;27;20390;-78
2023/05/29 12:30:49;;;;;;;10.20;1.48;;;15.00;99.90;;;;;;5137287;27;20066;-80
2023/05/29 12:33:34;;;;;;;8.75;1.60;;;15.10;99.90;;;;;;5137361;27;20523;-84
2023/05/29 12:36:08;;;;;;;6.00;1.30;;;15.10;99.90;;;;;;5138079;27;20088;-82
2023/05/29 12:38:47;;;;;;;13.10;1.67;;;15.20;99.90;;;;;;5119848;27;20467;-84
2023/05/29 12:41:29;;;;;;;7.78;1.35;;;15.20;99.90;;;;;;5137025;27;20100;-86
2023/05/29 12:43:57;;;;;;;6.90;1.25;;;15.20;99.90;;;;;;5137225;27;20066;-90
2023/05/29 12:46:26;;;;;;;9.52;1.38;;;15.10;99.90;;;;;;5136869;27;20047;-90
2023/05/29 12:48:56;;;;;;;6.80;1.15;;;15.10;99.90;;;;;;5101729;27;20046;-87
2023/05/29 12:51:28;;;;;;;6.13;1.50;;;15.10;99.90;;;;;;5136732;27;20047;-82